Time;durP1;ratioP1;P1;durP2;ratioP2;P2;SDS_P1;SDS_P2;PMS_P1;PMS_P2;Temp;Humidity;BMP_temperature;BMP_pressure;BME280_temperature;BME280_humidity;BME280_pressure;Samples;Min_cycle;Max_cycle;Signal;HPM_P1;HPM_P2
2021/12/06 00:00:45;;;;;;;3.10;2.50;;;;;;;3.67;100.00;99826.47;5021173;28;20114;-64
2021/12/06 00:03:48;;;;;;;5.38;3.35;;;;;;;3.62;100.00;99822.47;5021322;28;20040;-65
2021/12/06 00:06:34;;;;;;;3.97;3.40;;;;;;;3.49;100.00;99835.72;5021132;28;20060;-66
2021/12/06 00:09:21;;;;;;;4.88;3.88;;;;;;;3.42;100.00;99833.63;5020922;28;20053;-65
2021/12/06 00:12:05;;;;;;;3.53;3.13;;;;;;;3.31;100.00;99839.66;5036025;28;20053;-65
2021/12/06 00:14:49;;;;;;;6.18;3.80;;;;;;;3.24;100.00;99832.31;5020810;28;20110;-65
2021/12/06 00:17:33;;;;;;;4.30;3.30;;;;;;;3.15;100.00;99843.50;5035914;28;20053;-64
2021/12/06 00:20:17;;;;;;;5.15;3.28;;;;;;;3.07;100.00;99844.03;5036017;28;20096;-65
2021/12/06 00:23:01;;;;;;;5.53;3.15;;;;;;;2.99;100.00;99843.72;5020950;28;20132;-64
2021/12/06 00:25:45;;;;;;;5.55;3.90;;;;;;;2.90;100.00;99840.88;5021025;28;20413;-65
2021/12/06 00:28:29;;;;;;;6.97;3.83;;;;;;;2.82;100.00;99848.50;5020800;28;20556;-65
2021/12/06 00:31:14;;;;;;;6.32;3.88;;;;;;;2.75;100.00;99844.59;5035838;28;20410;-65
2021/12/06 00:34:03;;;;;;;6.00;3.67;;;;;;;2.66;100.00;99839.94;5035479;28;20056;-65
2021/12/06 00:36:54;;;;;;;8.25;4.10;;;;;;;2.58;100.00;99847.53;5035311;28;20509;-65
2021/12/06 00:39:38;;;;;;;9.80;4.80;;;;;;;2.49;100.00;99854.25;5021398;28;20140;-65
2021/12/06 00:42:24;;;;;;;7.50;3.63;;;;;;;2.44;100.00;99852.88;5006449;28;20115;-65
2021/12/06 00:45:09;;;;;;;8.18;3.70;;;;;;;2.36;100.00;99857.81;5006635;28;20056;-64
2021/12/06 00:47:53;;;;;;;7.15;3.65;;;;;;;2.32;100.00;99871.28;5020367;28;20048;-65
2021/12/06 00:50:39;;;;;;;5.68;3.88;;;;;;;2.32;100.00;99868.63;5020150;28;20076;-63
2021/12/06 00:53:23;;;;;;;8.40;4.45;;;;;;;2.34;100.00;99864.97;5020061;28;20107;-65
2021/12/06 00:56:08;;;;;;;8.35;5.15;;;;;;;2.40;100.00;99869.81;5034750;28;20052;-66
2021/12/06 00:58:52;;;;;;;8.98;4.60;;;;;;;2.41;100.00;99871.53;5020448;28;20573;-65
2021/12/06 01:01:36;;;;;;;;;;;;;;;2.48;100.00;99875.41;5020832;28;20123;-65
2021/12/06 01:04:20;;;;;;;6.90;3.95;;;;;;;2.42;100.00;99878.47;5035168;28;19920;-65
2021/12/06 01:07:04;;;;;;;6.60;3.72;;;;;;;2.41;100.00;99883.81;5019940;28;20080;-64
2021/12/06 01:09:48;;;;;;;9.02;4.82;;;;;;;2.39;100.00;99875.19;5020019;28;20509;-65
2021/12/06 01:12:32;;;;;;;;;;;;;;;2.41;100.00;99881.19;5020350;28;20458;-65
2021/12/06 01:15:17;;;;;;;7.70;4.90;;;;;;;2.31;100.00;99886.22;5043205;22;20284;-64
2021/12/06 01:18:02;;;;;;;8.25;4.50;;;;;;;2.25;100.00;99889.25;5019959;28;20107;-64
2021/12/06 01:24:00;;;;;;;8.75;5.05;;;;;;;2.15;100.00;99901.31;5013484;28;20048;-64
2021/12/06 01:30:04;;;;;;;5.70;4.38;;;;;;;2.11;100.00;99923.50;5021623;28;20351;-64
2021/12/06 01:42:00;;;;;;;6.88;4.97;;;;;;;2.33;100.00;99941.34;5022203;28;20417;-64
2021/12/06 01:44:46;;;;;;;9.38;5.45;;;;;;;2.36;100.00;99939.34;5019303;28;20463;-64
2021/12/06 01:47:36;;;;;;;10.68;5.47;;;;;;;2.40;100.00;99953.97;5034624;28;20064;-64
2021/12/06 01:50:24;;;;;;;6.80;4.88;;;;;;;2.44;100.00;99948.41;5019037;28;20102;-64
2021/12/06 01:53:08;;;;;;;8.63;5.03;;;;;;;2.46;100.00;99965.91;5034167;28;20048;-64
2021/12/06 01:55:52;;;;;;;6.35;4.53;;;;;;;2.47;100.00;99954.44;5034633;28;20052;-64
2021/12/06 01:58:36;;;;;;;7.47;4.78;;;;;;;2.46;100.00;99955.41;5005212;28;20051;-64
2021/12/06 02:01:20;;;;;;;7.22;4.63;;;;;;;2.48;100.00;99951.69;5018780;28;20052;-64
2021/12/06 02:04:04;;;;;;;8.18;4.68;;;;;;;2.50;100.00;99949.78;5033983;28;20107;-64
2021/12/06 02:06:49;;;;;;;6.78;4.55;;;;;;;2.48;100.00;99951.69;5004275;28;20410;-64
2021/12/06 02:09:32;;;;;;;;;;;;;;;2.53;100.00;99947.81;5019087;28;20056;-63
2021/12/06 02:12:18;;;;;;;7.65;5.28;;;;;;;2.40;100.00;99951.34;5018804;28;20417;-64
2021/12/06 02:15:08;;;;;;;7.70;5.13;;;;;;;2.33;100.00;99955.34;5033552;28;20063;-64
2021/12/06 02:18:04;;;;;;;7.05;4.20;;;;;;;2.25;100.00;99960.25;5005444;28;20522;-64
2021/12/06 02:21:00;;;;;;;5.85;3.90;;;;;;;2.20;100.00;99957.09;5033452;28;20521;-64
2021/12/06 02:23:45;;;;;;;7.32;4.20;;;;;;;2.12;100.00;99955.88;5019924;28;20036;-64
2021/12/06 02:26:29;;;;;;;9.63;4.55;;;;;;;2.12;100.00;99964.63;5018427;28;20571;-64
2021/12/06 02:29:13;;;;;;;8.23;4.40;;;;;;;1.98;100.00;99961.19;5033474;28;20426;-64
2021/12/06 02:31:57;;;;;;;8.63;5.40;;;;;;;1.97;100.00;99973.50;5033447;28;20561;-64
2021/12/06 02:34:46;;;;;;;7.43;5.05;;;;;;;1.96;100.00;99987.56;5033193;28;20079;-64
2021/12/06 02:37:32;;;;;;;7.63;4.63;;;;;;;1.94;100.00;99991.22;5033384;28;20084;-64
2021/12/06 02:40:30;;;;;;;9.95;5.70;;;;;;;1.91;100.00;99992.28;5018564;28;20154;-64
2021/12/06 02:43:14;;;;;;;8.35;5.60;;;;;;;1.90;100.00;99995.88;5018255;28;20390;-64
2021/12/06 02:45:58;;;;;;;10.35;5.32;;;;;;;1.91;100.00;100002.81;5017940;28;20052;-64
2021/12/06 02:48:42;;;;;;;;;;;;;;;1.95;100.00;100004.28;5004435;28;20099;-64
2021/12/06 02:51:27;;;;;;;6.95;4.75;;;;;;;1.89;100.00;100009.94;5018421;28;19990;-64
2021/12/06 02:54:11;;;;;;;7.97;4.90;;;;;;;1.93;100.00;100010.56;5017901;28;20103;-62
2021/12/06 02:57:08;;;;;;;7.13;4.93;;;;;;;1.98;100.00;100013.78;5017861;28;20052;-64
2021/12/06 02:59:52;;;;;;;7.68;4.70;;;;;;;2.02;100.00;100021.38;5019880;28;20052;-64
2021/12/06 03:02:36;;;;;;;7.50;5.40;;;;;;;2.09;100.00;100020.03;5018201;28;20144;-63
2021/12/06 03:05:20;;;;;;;8.25;5.32;;;;;;;2.13;100.00;100018.03;5032693;28;20160;-64
2021/12/06 03:08:05;;;;;;;10.00;5.80;;;;;;;2.20;100.00;100028.09;5003963;28;20048;-64
2021/12/06 03:10:49;;;;;;;9.02;4.57;;;;;;;2.19;100.00;100026.38;5017725;28;20084;-64
2021/12/06 03:13:33;;;;;;;;;;;;;;;2.30;100.00;100026.56;5018001;28;20622;-64
2021/12/06 03:16:17;;;;;;;7.35;5.53;;;;;;;2.22;100.00;100022.72;5017533;28;20046;-64
2021/12/06 03:19:01;;;;;;;;;;;;;;;2.28;100.00;100023.16;5018177;28;20084;-64
2021/12/06 03:21:45;;;;;;;10.05;5.70;;;;;;;2.24;100.00;100026.09;5017723;28;19935;-64
2021/12/06 03:24:29;;;;;;;9.52;6.10;;;;;;;2.24;100.00;100036.63;5017624;28;20091;-64
2021/12/06 03:27:14;;;;;;;11.15;5.45;;;;;;;2.27;100.00;100041.69;5017298;28;20430;-64
2021/12/06 03:29:58;;;;;;;8.18;5.53;;;;;;;2.21;100.00;100042.94;5032424;28;20052;-64
2021/12/06 03:32:42;;;;;;;;;;;;;;;2.32;100.00;100044.88;5017992;28;20052;-64
2021/12/06 03:35:26;;;;;;;9.23;6.00;;;;;;;2.26;100.00;100047.91;5017614;28;19967;-64
2021/12/06 03:38:10;;;;;;;;;;;;;;;2.33;100.00;100042.16;5033030;28;20084;-64
2021/12/06 03:40:54;;;;;;;10.48;5.80;;;;;;;2.30;100.00;100044.97;5017677;28;19920;-64
2021/12/06 03:43:39;;;;;;;;;;;;;;;2.37;100.00;100053.31;5032990;28;20044;-63
2021/12/06 03:46:23;;;;;;;9.27;5.70;;;;;;;2.34;100.00;100048.22;5017591;28;19974;-64
2021/12/06 03:49:10;;;;;;;7.47;4.90;;;;;;;2.35;100.00;100053.41;5017299;28;20468;-64
2021/12/06 03:51:54;;;;;;;9.85;6.35;;;;;;;2.33;100.00;100057.94;5032188;28;20092;-64
2021/12/06 03:54:38;;;;;;;7.90;5.75;;;;;;;2.35;100.00;100066.56;5017239;28;20475;-64
2021/12/06 03:57:23;;;;;;;8.32;5.25;;;;;;;2.40;100.00;100061.00;5032416;28;20461;-64
2021/12/06 04:00:08;;;;;;;8.55;5.10;;;;;;;2.41;100.00;100076.69;4989982;28;20056;-61
2021/12/06 04:02:53;;;;;;;7.82;5.57;;;;;;;2.42;100.00;100067.88;5017249;28;20061;-64
2021/12/06 04:05:37;;;;;;;7.30;5.20;;;;;;;2.43;100.00;100073.00;5032213;28;20053;-64
2021/12/06 04:08:21;;;;;;;;;;;;;;;2.52;100.00;100085.56;5004196;28;20045;-64
2021/12/06 04:11:05;;;;;;;8.20;5.10;;;;;;;2.48;100.00;100088.50;5017324;28;19971;-64
2021/12/06 04:13:49;;;;;;;8.07;5.18;;;;;;;2.53;100.00;100091.69;5003252;28;20128;-64
2021/12/06 04:16:34;;;;;;;10.05;5.60;;;;;;;2.58;100.00;100089.59;5016815;28;20056;-64
2021/12/06 04:19:19;;;;;;;11.52;5.88;;;;;;;2.65;100.00;100096.16;5003128;28;20052;-64
2021/12/06 04:22:03;;;;;;;9.32;4.70;;;;;;;2.74;100.00;100095.56;5032248;28;20514;-64
2021/12/06 04:24:47;;;;;;;8.85;5.40;;;;;;;2.75;100.00;100097.25;5016913;28;20128;-62
2021/12/06 04:27:31;;;;;;;9.60;5.68;;;;;;;2.82;100.00;100103.81;5016935;28;20480;-64
2021/12/06 04:30:15;;;;;;;9.90;5.28;;;;;;;2.82;100.00;100109.09;5033009;28;20053;-64
2021/12/06 04:32:59;;;;;;;8.23;5.03;;;;;;;2.81;100.00;100108.22;5035913;28;20446;-64
2021/12/06 04:35:47;;;;;;;9.13;5.72;;;;;;;2.81;100.00;100112.63;5020388;28;20131;-64
2021/12/06 04:38:31;;;;;;;10.45;5.53;;;;;;;2.79;100.00;100115.38;5035586;28;20040;-64
2021/12/06 04:41:15;;;;;;;9.25;5.55;;;;;;;2.85;100.00;100120.25;5020360;28;20048;-64
2021/12/06 04:43:59;;;;;;;9.23;5.88;;;;;;;2.84;100.00;100117.72;5020279;28;20398;-64
2021/12/06 04:46:43;;;;;;;;;;;;;;;2.95;100.00;100125.75;5035688;28;20545;-64
2021/12/06 04:49:29;;;;;;;8.88;5.32;;;;;;;2.89;100.00;100131.41;5020502;28;19940;-65
2021/12/06 04:52:15;;;;;;;7.47;5.20;;;;;;;2.98;100.00;100130.81;5035117;28;20171;-64
2021/12/06 04:55:00;;;;;;;9.63;4.85;;;;;;;3.00;100.00;100123.66;5020240;28;20557;-64
2021/12/06 04:57:45;;;;;;;6.43;4.60;;;;;;;2.93;100.00;100128.50;5006140;28;20421;-64
2021/12/06 05:00:40;;;;;;;7.85;4.68;;;;;;;2.97;100.00;100140.53;5006169;28;20384;-64
2021/12/06 05:03:24;;;;;;;6.70;4.85;;;;;;;2.99;100.00;100141.28;5020411;28;20111;-64
2021/12/06 05:06:15;;;;;;;14.00;5.30;;;;;;;2.90;100.00;100146.28;5034812;28;20536;-63
2021/12/06 05:09:07;;;;;;;8.30;5.32;;;;;;;2.87;100.00;100155.25;5019852;28;20083;-64
2021/12/06 05:11:51;;;;;;;7.75;4.45;;;;;;;2.80;100.00;100159.19;5019724;28;20047;-63
2021/12/06 05:14:35;;;;;;;8.73;5.18;;;;;;;2.77;100.00;100158.53;5005770;28;20427;-64
2021/12/06 05:17:21;;;;;;;;;;;;;;;2.93;100.00;100161.91;5020540;28;20048;-64
2021/12/06 05:20:05;;;;;;;7.57;5.13;;;;;;;2.92;100.00;100168.09;5019600;28;20326;-64
2021/12/06 05:22:50;;;;;;;11.32;4.70;;;;;;;2.90;100.00;100169.97;5034663;28;20091;-64
2021/12/06 05:25:34;;;;;;;8.38;5.10;;;;;;;2.87;100.00;100168.41;5019857;28;20079;-64
2021/12/06 05:28:22;;;;;;;;;;;;;;;2.98;100.00;100178.22;5006481;28;20140;-64
2021/12/06 05:31:14;;;;;;;5.50;4.53;;;;;;;2.96;100.00;100178.34;5020199;28;20412;-64
2021/12/06 05:34:02;;;;;;;9.18;5.03;;;;;;;3.00;100.00;100189.50;5020580;28;20106;-64
2021/12/06 05:36:46;;;;;;;6.93;4.43;;;;;;;3.02;100.00;100179.72;5019849;28;20410;-64
2021/12/06 05:39:30;;;;;;;;;;;;;;;3.10;100.00;100183.56;5034708;28;20139;-64
2021/12/06 05:42:15;;;;;;;6.45;4.35;;;;;;;3.07;100.00;100182.91;5018128;28;19974;-64
2021/12/06 05:44:59;;;;;;;6.97;4.63;;;;;;;3.05;100.00;100190.06;5019075;28;20477;-64
2021/12/06 05:47:43;;;;;;;6.35;4.80;;;;;;;3.00;100.00;100193.00;5019506;28;20176;-64
2021/12/06 05:50:27;;;;;;;6.03;3.75;;;;;;;2.99;100.00;100195.72;5019197;28;20049;-64
2021/12/06 05:53:11;;;;;;;5.75;3.80;;;;;;;2.94;100.00;100203.06;5019081;28;20091;-63
2021/12/06 05:55:55;;;;;;;6.45;4.00;;;;;;;2.83;100.00;100216.06;5034064;28;20052;-64
2021/12/06 05:58:39;;;;;;;;;;;;;;;2.84;100.00;100223.03;5019327;28;20044;-64
2021/12/06 06:01:29;;;;;;;6.63;4.40;;;;;;;2.86;100.00;100229.03;5005315;28;20034;-64
2021/12/06 06:04:13;;;;;;;5.07;3.80;;;;;;;2.80;100.00;100234.69;5019631;28;20111;-63
2021/12/06 06:06:57;;;;;;;5.68;3.95;;;;;;;2.82;100.00;100240.72;5018611;28;20119;-64
2021/12/06 06:09:41;;;;;;;;;;;;;;;2.95;100.00;100252.97;5005438;28;20194;-64
2021/12/06 06:12:25;;;;;;;6.65;4.20;;;;;;;2.92;100.00;100250.56;5004926;28;20282;-64
2021/12/06 06:15:09;;;;;;;7.80;4.35;;;;;;;2.99;100.00;100258.91;5018493;28;20052;-64
2021/12/06 06:17:53;;;;;;;6.18;4.40;;;;;;;3.02;100.00;100269.25;5033790;28;20095;-64
2021/12/06 06:20:49;;;;;;;7.28;4.43;;;;;;;3.13;100.00;100269.44;5018598;28;20095;-64
2021/12/06 06:23:33;;;;;;;6.55;4.72;;;;;;;3.09;100.00;100276.69;5033408;28;20094;-64
2021/12/06 06:26:17;;;;;;;8.27;4.88;;;;;;;3.10;100.00;100275.72;5018295;28;20053;-64
2021/12/06 06:29:00;;;;;;;5.22;3.97;;;;;;;3.07;100.00;100289.09;5004637;28;20059;-64
2021/12/06 06:31:45;;;;;;;4.97;4.25;;;;;;;3.19;100.00;100292.72;5004518;28;20052;-64
2021/12/06 06:34:29;;;;;;;8.45;4.00;;;;;;;3.17;100.00;100297.25;5004356;28;20044;-64
2021/12/06 06:37:13;;;;;;;5.47;4.28;;;;;;;3.18;100.00;100296.31;5018052;28;20083;-63
2021/12/06 06:39:57;;;;;;;5.65;4.10;;;;;;;3.19;100.00;100305.91;5018152;28;20092;-64
2021/12/06 06:42:41;;;;;;;7.72;4.03;;;;;;;3.24;100.00;100306.47;5018496;28;20076;-64
2021/12/06 06:45:25;;;;;;;7.05;3.97;;;;;;;3.24;100.00;100314.38;5033141;28;20114;-64
2021/12/06 06:48:09;;;;;;;4.95;3.75;;;;;;;3.22;100.00;100316.22;5033026;28;20048;-64
2021/12/06 06:50:53;;;;;;;;;;;;;;;3.34;100.00;100318.94;5018546;28;20135;-64
2021/12/06 06:53:37;;;;;;;6.93;4.35;;;;;;;3.02;100.00;100316.66;5017773;28;19963;-63
2021/12/06 06:56:22;;;;;;;5.20;3.72;;;;;;;3.01;100.00;100325.47;5032782;28;20095;-64
2021/12/06 06:59:06;;;;;;;5.22;3.67;;;;;;;3.03;100.00;100318.34;5032799;28;20051;-64
2021/12/06 07:01:51;;;;;;;9.18;3.75;;;;;;;3.06;100.00;100312.88;5018167;28;20510;-64
2021/12/06 07:04:35;;;;;;;5.38;3.95;;;;;;;3.08;100.00;100317.13;5004006;28;20128;-64
2021/12/06 07:07:19;;;;;;;;;;;;;;;3.18;100.00;100322.66;5004498;28;20418;-64
2021/12/06 07:10:04;;;;;;;7.68;4.25;;;;;;;3.06;100.00;100329.53;5017690;28;19943;-64
2021/12/06 07:12:51;;;;;;;5.63;3.72;;;;;;;3.01;100.00;100341.28;5017676;28;20052;-64
2021/12/06 07:15:36;;;;;;;8.75;4.43;;;;;;;2.98;100.00;100333.56;5018056;28;20099;-64
2021/12/06 07:18:21;;;;;;;5.80;4.10;;;;;;;2.97;100.00;100334.53;5032806;28;20107;-64
2021/12/06 07:21:05;;;;;;;7.68;4.03;;;;;;;3.02;100.00;100343.00;5017616;28;20133;-64
2021/12/06 07:23:49;;;;;;;5.13;3.42;;;;;;;3.01;100.00;100347.41;5032756;28;20044;-64
2021/12/06 07:26:34;;;;;;;6.13;4.57;;;;;;;3.04;100.00;100349.00;5017927;28;20144;-64
2021/12/06 07:29:17;;;;;;;4.60;3.90;;;;;;;3.09;100.00;100362.72;5017601;28;20067;-64
2021/12/06 07:32:02;;;;;;;;;;;;;;;3.21;100.00;100369.84;5018365;28;20064;-64
2021/12/06 07:34:47;;;;;;;4.50;3.50;;;;;;;3.19;100.00;100366.47;5032640;28;20404;-63
2021/12/06 07:37:31;;;;;;;5.93;3.40;;;;;;;3.20;100.00;100363.75;5032387;28;20103;-64
2021/12/06 07:40:16;;;;;;;;;;;;;;;3.07;100.00;100367.25;5032772;28;20052;-64
2021/12/06 07:43:00;;;;;;;4.82;3.22;;;;;;;3.09;100.00;100370.63;5017616;28;19970;-64
2021/12/06 07:45:44;;;;;;;5.28;3.78;;;;;;;3.17;100.00;100382.41;5017204;28;20052;-64
2021/12/06 07:48:29;;;;;;;4.80;3.40;;;;;;;3.04;100.00;100385.88;5032286;28;20063;-64
2021/12/06 07:51:13;;;;;;;5.38;3.78;;;;;;;3.18;100.00;100389.38;5017831;28;20056;-64
2021/12/06 07:53:57;;;;;;;5.03;3.47;;;;;;;3.18;100.00;100384.09;5017203;28;20132;-64
2021/12/06 07:56:42;;;;;;;4.72;3.20;;;;;;;3.17;100.00;100384.19;5017286;28;20044;-64
2021/12/06 07:59:27;;;;;;;3.55;3.20;;;;;;;3.27;100.00;100395.84;5017451;28;20044;-64
2021/12/06 08:02:11;;;;;;;3.97;3.17;;;;;;;3.33;100.00;100393.66;5017518;28;20048;-64
2021/12/06 08:05:29;;;;;;;;;;;;;;;3.19;100.00;100392.81;5032920;28;20486;-64
2021/12/06 08:08:14;;;;;;;4.10;2.90;;;;;;;3.21;100.00;100398.84;5024018;28;19963;-64
2021/12/06 08:11:01;;;;;;;2.65;2.13;;;;;;;3.13;100.00;100395.84;5007393;28;20048;-64
2021/12/06 08:13:47;;;;;;;4.57;2.55;;;;;;;3.17;100.00;100400.84;5020948;28;20044;-64
2021/12/06 08:16:34;;;;;;;3.25;2.80;;;;;;;3.13;100.00;100403.75;5035770;28;20056;-64
2021/12/06 08:19:18;;;;;;;4.28;3.25;;;;;;;3.13;100.00;100409.03;5020948;28;20060;-64
2021/12/06 08:22:02;;;;;;;3.70;2.95;;;;;;;3.23;100.00;100404.88;5035892;28;20509;-64
2021/12/06 08:24:47;;;;;;;4.13;2.70;;;;;;;3.17;100.00;100400.84;5035625;28;20137;-64
2021/12/06 08:27:30;;;;;;;;;;;;;;;3.13;100.00;100407.22;5036143;28;20179;-64
2021/12/06 08:30:16;;;;;;;5.78;2.75;;;;;;;3.25;100.00;100413.53;5035861;28;20050;-64
2021/12/06 08:33:03;;;;;;;4.07;2.90;;;;;;;3.25;100.00;100413.53;5029580;22;20117;-64
2021/12/06 08:35:52;;;;;;;4.72;3.20;;;;;;;3.39;100.00;100413.50;5020775;28;20216;-64
2021/12/06 08:38:37;;;;;;;3.90;2.90;;;;;;;3.30;100.00;100421.97;5020978;28;20044;-64
2021/12/06 08:41:24;;;;;;;4.72;3.10;;;;;;;3.35;100.00;100419.94;5020715;28;20052;-64
2021/12/06 08:44:08;;;;;;;5.40;3.67;;;;;;;3.19;100.00;100409.50;5020258;28;20457;-64
2021/12/06 08:46:52;;;;;;;5.22;3.72;;;;;;;3.26;100.00;100415.22;5020248;28;20052;-64
2021/12/06 08:49:36;;;;;;;7.88;5.25;;;;;;;3.29;100.00;100418.53;5035246;28;20183;-64
2021/12/06 08:52:20;;;;;;;9.38;5.07;;;;;;;3.34;100.00;100423.50;5006391;28;20082;-64
2021/12/06 08:55:06;;;;;;;10.27;5.35;;;;;;;3.58;100.00;100421.97;5035206;28;20510;-64
2021/12/06 08:57:50;;;;;;;8.50;5.22;;;;;;;3.49;100.00;100423.38;5006419;28;20123;-64
2021/12/06 09:00:36;;;;;;;9.75;5.93;;;;;;;3.77;100.00;100427.75;5020261;28;20063;-64
2021/12/06 09:03:20;;;;;;;9.43;5.80;;;;;;;3.68;100.00;100426.56;5020116;28;20060;-64
2021/12/06 09:06:06;;;;;;;;;;;;;;;3.96;100.00;100423.84;5020224;28;20144;-64
2021/12/06 09:08:50;;;;;;;9.43;5.72;;;;;;;4.05;100.00;100425.06;5035084;28;20457;-64
2021/12/06 09:11:34;;;;;;;;;;;;;;;4.06;100.00;100429.38;5035662;28;20049;-65
2021/12/06 09:14:20;;;;;;;10.10;5.90;;;;;;;4.12;100.00;100429.81;5019573;28;19920;-65
2021/12/06 09:17:04;;;;;;;10.52;6.38;;;;;;;4.30;100.00;100425.13;5019686;28;20096;-64
2021/12/06 09:19:48;;;;;;;;;;;;;;;4.29;100.00;100428.72;5006403;28;20111;-64
2021/12/06 09:22:32;;;;;;;10.68;7.15;;;;;;;4.32;100.00;100434.63;5019551;28;19997;-65
2021/12/06 09:25:16;;;;;;;12.18;7.55;;;;;;;4.29;100.00;100420.78;5035046;28;20124;-65
2021/12/06 09:28:01;;;;;;;13.95;7.57;;;;;;;4.46;100.00;100433.72;5019932;28;20052;-64
2021/12/06 09:30:46;;;;;;;12.52;7.80;;;;;;;4.78;100.00;100427.97;5019506;28;20162;-65
2021/12/06 09:33:31;;;;;;;15.25;9.00;;;;;;;4.67;100.00;100432.28;5034239;28;20044;-65
2021/12/06 09:36:18;;;;;;;17.75;10.00;;;;;;;4.85;100.00;100436.31;5019246;28;20088;-65
2021/12/06 09:39:05;;;;;;;15.55;8.75;;;;;;;4.68;100.00;100426.88;5020016;28;20528;-64
2021/12/06 09:41:49;;;;;;;17.98;10.30;;;;;;;4.61;100.00;100430.91;5019629;28;20465;-64
2021/12/06 09:44:34;;;;;;;19.08;11.27;;;;;;;4.76;100.00;100431.69;5005268;28;20134;-64
2021/12/06 09:47:18;;;;;;;20.35;11.18;;;;;;;4.83;100.00;100432.94;5019337;28;20052;-64
2021/12/06 09:50:03;;;;;;;17.88;10.80;;;;;;;4.78;100.00;100430.59;5019242;28;20107;-64
2021/12/06 09:52:47;;;;;;;21.33;11.00;;;;;;;4.71;100.00;100441.69;5005270;28;20125;-64
2021/12/06 09:55:33;;;;;;;25.70;13.45;;;;;;;4.95;100.00;100444.34;5005445;28;20129;-65
2021/12/06 09:58:17;;;;;;;21.63;12.43;;;;;;;5.06;100.00;100444.47;5018871;28;20415;-65
2021/12/06 10:01:12;;;;;;;24.90;13.52;;;;;;;5.06;100.00;100433.91;5019138;28;20048;-64
2021/12/06 10:03:58;;;;;;;25.15;13.68;;;;;;;5.33;100.00;100439.06;5033719;28;20041;-64
2021/12/06 10:06:44;;;;;;;20.95;13.60;;;;;;;5.76;100.00;100433.25;5018898;28;20052;-64
2021/12/06 10:09:28;;;;;;;23.33;12.45;;;;;;;5.66;100.00;100442.81;5033684;28;20056;-65
2021/12/06 10:12:15;;;;;;;18.85;11.30;;;;;;;5.82;100.00;100437.28;5033859;28;20115;-65
2021/12/06 10:15:02;;;;;;;21.80;11.57;;;;;;;5.83;100.00;100423.13;5033527;28;20045;-65
2021/12/06 10:17:47;;;;;;;15.43;10.55;;;;;;;6.55;100.00;100428.31;5019441;28;20126;-65
2021/12/06 10:20:31;;;;;;;20.75;12.40;;;;;;;7.75;90.96;100409.03;5018706;28;20577;-65
2021/12/06 10:23:16;;;;;;;17.10;11.40;;;;;;;9.95;80.60;100407.72;5018587;28;20509;-65
2021/12/06 10:26:00;;;;;;;14.07;8.32;;;;;;;9.95;80.60;100407.72;5018503;28;20080;-65
2021/12/06 10:28:44;;;;;;;14.07;8.48;;;;;;;12.57;63.00;100404.59;5033013;28;20126;-66
2021/12/06 10:31:30;;;;;;;12.45;8.27;;;;;;;12.57;63.00;100404.59;5033510;28;20052;-65
2021/12/06 10:34:16;;;;;;;6.88;3.90;;;;;;;14.26;51.34;100400.44;5032959;28;20052;-66
2021/12/06 10:37:00;;;;;;;12.07;8.73;;;;;;;14.22;56.10;100401.44;5004584;28;20103;-66
2021/12/06 10:39:44;;;;;;;13.55;9.32;;;;;;;16.06;50.24;100387.75;5033676;28;20099;-66
2021/12/06 10:42:39;;;;;;;13.15;8.95;;;;;;;13.64;52.82;100396.97;5018236;28;20049;-66
2021/12/06 10:45:29;;;;;;;12.77;8.02;;;;;;;12.08;59.05;100405.09;5018262;28;20052;-66
2021/12/06 10:48:25;;;;;;;13.05;8.55;;;;;;;11.97;61.31;100132.97;5004108;28;20084;-65
2021/12/06 10:51:18;;;;;;;16.33;10.02;;;;;;;11.97;61.31;100402.63;5004294;28;20048;-65
2021/12/06 10:54:16;;;;;;;16.77;10.43;;;;;;;10.53;69.79;100389.88;5032761;28;20120;-66
2021/12/06 10:57:03;;;;;;;16.75;9.93;;;;;;;10.53;100.00;61774.03;5033155;28;20585;-65
2021/12/06 10:59:47;;;;;;;15.07;10.07;;;;;;;-139.48;100.00;61774.03;5033022;28;20060;-65
2021/12/06 11:02:31;;;;;;;18.92;10.95;;;;;;;-139.48;100.00;61774.03;5017767;28;20533;-65
2021/12/06 11:05:26;;;;;;;15.45;9.63;;;;;;;-139.48;100.00;61774.03;5017916;28;20140;-65
2021/12/06 11:08:16;;;;;;;13.23;9.57;;;;;;;-139.48;100.00;61774.03;5017978;28;20407;-65
2021/12/06 11:11:05;;;;;;;15.50;9.35;;;;;;;-139.48;100.00;61774.03;5017680;28;20617;-66
2021/12/06 11:13:52;;;;;;;13.93;9.48;;;;;;;-139.48;100.00;61774.03;5017715;28;20513;-64
2021/12/06 11:16:39;;;;;;;16.38;9.32;;;;;;;-139.48;100.00;61774.03;5017850;28;20128;-65
2021/12/06 11:19:26;;;;;;;11.57;7.93;;;;;;;-139.48;100.00;61774.03;5032749;28;20056;-65
2021/12/06 11:22:13;;;;;;;13.10;8.82;;;;;;;-139.48;100.00;61774.03;5032522;28;20099;-65
2021/12/06 11:24:56;;;;;;;13.95;8.95;;;;;;;-139.48;100.00;61774.03;5017490;28;20461;-64
2021/12/06 11:27:42;;;;;;;12.73;8.02;;;;;;;-139.48;100.00;61774.03;5017994;28;20182;-65
2021/12/06 11:30:27;;;;;;;11.43;8.02;;;;;;;-139.48;100.00;61774.03;5032683;28;20049;-64
2021/12/06 11:33:26;;;;;;;13.63;9.13;;;;;;;-139.48;100.00;61774.03;5003560;28;20462;-64
2021/12/06 11:36:25;;;;;;;16.33;9.50;;;;;;;-139.48;100.00;61774.03;5003549;28;20140;-64
2021/12/06 11:39:13;;;;;;;11.70;8.23;;;;;;;-139.48;100.00;61774.03;5017431;28;20084;-65
2021/12/06 11:41:58;;;;;;;11.02;7.72;;;;;;;-139.48;100.00;61774.03;5007606;28;20051;-65
2021/12/06 11:44:43;;;;;;;13.85;8.32;;;;;;;-139.48;100.00;61774.03;5021322;28;20045;-65
2021/12/06 11:47:27;;;;;;;13.10;7.97;;;;;;;-139.48;100.00;61774.03;5036576;28;20049;-65
2021/12/06 11:50:12;;;;;;;11.32;7.80;;;;;;;-139.48;100.00;61774.03;5007625;28;20464;-64
2021/12/06 11:53:03;;;;;;;9.60;6.55;;;;;;;-139.48;100.00;61774.03;5021600;28;20057;-64
2021/12/06 11:55:53;;;;;;;9.50;7.55;;;;;;;-139.48;100.00;61774.03;5021455;28;20099;-65
2021/12/06 11:58:40;;;;;;;10.23;6.47;;;;;;;-139.48;100.00;61774.03;5036598;28;20122;-65
2021/12/06 12:01:24;;;;;;;10.85;7.07;;;;;;;-139.48;100.00;61774.03;5036528;28;20178;-65
2021/12/06 12:04:17;;;;;;;9.10;5.68;;;;;;;-139.48;100.00;61774.03;5035979;28;20106;-65
2021/12/06 12:07:03;;;;;;;8.88;5.13;;;;;;;-139.48;100.00;61774.03;5036282;28;20064;-65
2021/12/06 12:09:47;;;;;;;10.07;6.57;;;;;;;-139.48;100.00;61774.03;5020911;28;20120;-65
2021/12/06 12:12:31;;;;;;;;;;;;;;;-139.48;100.00;61774.03;5021772;28;20048;-65
2021/12/06 12:15:17;;;;;;;6.17;4.90;;;;;;;-139.48;100.00;61774.03;5036176;28;19959;-65
2021/12/06 12:18:01;;;;;;;5.50;3.97;;;;;;;-139.48;100.00;61774.03;5021171;28;20056;-66
2021/12/06 12:20:47;;;;;;;6.25;4.40;;;;;;;-139.48;100.00;61774.03;5020981;28;20045;-65
2021/12/06 12:23:33;;;;;;;4.55;3.40;;;;;;;-139.48;100.00;61774.03;5020802;28;20090;-66
2021/12/06 12:26:20;;;;;;;4.25;3.15;;;;;;;-139.48;100.00;61774.03;5020713;28;20056;-65
2021/12/06 12:29:13;;;;;;;3.20;2.90;;;;;;;-139.48;100.00;61774.03;5035874;28;20095;-64
2021/12/06 12:32:04;;;;;;;5.88;3.00;;;;;;;-139.48;100.00;61774.03;5022285;28;20068;-64
2021/12/06 12:34:50;;;;;;;4.32;3.17;;;;;;;-139.48;100.00;61774.03;5006377;28;20191;-65
2021/12/06 12:37:36;;;;;;;6.25;3.60;;;;;;;-139.48;100.00;61774.03;5020559;28;20048;-65
2021/12/06 12:40:23;;;;;;;5.47;3.45;;;;;;;-139.48;100.00;61774.03;5020361;28;20394;-66
2021/12/06 12:43:11;;;;;;;4.18;3.20;;;;;;;-139.48;100.00;61774.03;5035328;28;20128;-66
2021/12/06 12:45:56;;;;;;;4.90;3.97;;;;;;;-139.48;100.00;61774.03;5035463;28;20103;-66
2021/12/06 12:48:56;;;;;;;5.65;4.03;;;;;;;-139.48;100.00;61774.03;5020151;28;20129;-66
2021/12/06 12:51:55;;;;;;;5.97;4.10;;;;;;;-139.48;100.00;61774.03;5019601;28;20130;-66
2021/12/06 12:54:43;;;;;;;7.90;4.57;;;;;;;-139.48;100.00;61774.03;5020153;28;20114;-66
2021/12/06 12:57:37;;;;;;;6.75;4.68;;;;;;;-139.48;100.00;61774.03;5035236;28;20056;-66
2021/12/06 13:00:29;;;;;;;5.85;3.90;;;;;;;-139.48;100.00;61774.03;5035508;28;20091;-65
2021/12/06 13:03:30;;;;;;;6.32;4.75;;;;;;;-139.48;100.00;61774.03;5035117;28;20489;-65
2021/12/06 13:06:20;;;;;;;5.53;4.10;;;;;;;-139.48;100.00;61774.03;5034908;28;20418;-65
2021/12/06 13:09:05;;;;;;;6.85;4.65;;;;;;;-139.48;100.00;61774.03;5020089;28;20513;-65